Time;durP1;ratioP1;P1;durP2;ratioP2;P2;SDS_P1;SDS_P2;PMS_P1;PMS_P2;Temp;Humidity;BMP_temperature;BMP_pressure;BME280_temperature;BME280_humidity;BME280_pressure;Samples;Min_cycle;Max_cycle;Signal;HPM_P1;HPM_P2
2022/03/23 00:00:35;;;;;;;;;;;8.40;65.00;;;;;;5079201;28;19908;-80
2022/03/23 00:03:00;;;;;;;;;;;8.40;65.10;;;;;;5065686;28;19915;-80
2022/03/23 00:05:28;;;;;;;;;;;8.30;65.60;;;;;;5079123;28;19909;-80
2022/03/23 00:07:54;;;;;;;;;;;8.30;65.30;;;;;;5078200;28;20049;-80
2022/03/23 00:10:20;;;;;;;;;;;8.30;65.70;;;;;;5078912;28;19943;-80
2022/03/23 00:12:45;;;;;;;;;;;8.30;65.70;;;;;;5078832;28;19908;-80
2022/03/23 00:15:12;;;;;;;;;;;8.30;66.40;;;;;;5078967;28;19999;-80
2022/03/23 00:17:39;;;;;;;;;;;8.30;65.60;;;;;;5078806;28;19916;-80
2022/03/23 00:20:05;;;;;;;;;;;8.30;65.50;;;;;;5078805;28;19939;-80
2022/03/23 00:22:31;;;;;;;;;;;8.30;65.40;;;;;;5078357;28;20321;-80
2022/03/23 00:24:57;;;;;;;;;;;8.20;65.70;;;;;;5078688;28;19908;-80
2022/03/23 00:27:24;;;;;;;;;;;8.20;65.90;;;;;;5069208;28;19923;-80
2022/03/23 00:29:49;;;;;;;;;;;8.20;66.60;;;;;;5078582;28;20379;-80
2022/03/23 00:32:15;;;;;;;;;;;8.20;66.80;;;;;;5078341;28;20009;-80
2022/03/23 00:34:41;;;;;;;;;;;8.30;66.80;;;;;;5078059;28;19930;-80
2022/03/23 00:37:07;;;;;;;;;;;8.30;67.40;;;;;;5078067;28;19983;-80
2022/03/23 00:39:32;;;;;;;;;;;8.30;67.00;;;;;;5078135;28;20006;-80
2022/03/23 00:41:58;;;;;;;;;;;8.30;67.10;;;;;;5078325;28;19931;-80
2022/03/23 00:44:24;;;;;;;;;;;8.30;66.60;;;;;;5078469;28;19982;-80
2022/03/23 00:46:49;;;;;;;;;;;8.30;66.60;;;;;;5078131;28;19927;-80
2022/03/23 00:49:15;;;;;;;;;;;8.30;66.30;;;;;;5078363;28;19916;-80
2022/03/23 00:51:41;;;;;;;;;;;8.30;66.30;;;;;;5078212;28;19915;-80
2022/03/23 00:54:09;;;;;;;;;;;8.30;66.50;;;;;;5077844;28;19940;-80
2022/03/23 00:56:36;;;;;;;;;;;8.30;66.50;;;;;;5078137;28;19909;-79
2022/03/23 00:59:02;;;;;;;;;;;8.30;66.60;;;;;;5078142;28;19909;-79
2022/03/23 01:01:29;;;;;;;;;;;8.30;66.80;;;;;;5077162;28;19909;-79
2022/03/23 01:03:55;;;;;;;;;;;8.30;67.00;;;;;;5065733;28;20076;-80
2022/03/23 01:06:20;;;;;;;;;;;8.30;66.70;;;;;;5078039;28;19915;-79
2022/03/23 01:08:46;;;;;;;;;;;8.20;67.00;;;;;;5077769;28;19908;-79
2022/03/23 01:11:12;;;;;;;;;;;8.20;66.80;;;;;;5077857;28;19909;-80
2022/03/23 01:13:37;;;;;;;;;;;8.20;66.60;;;;;;5077969;28;19916;-81
2022/03/23 01:16:05;;;;;;;;;;;8.20;66.20;;;;;;5078181;28;19912;-80
2022/03/23 01:18:31;;;;;;;;;;;8.20;66.40;;;;;;5059930;28;19916;-80
2022/03/23 01:20:57;;;;;;;;;;;8.20;67.20;;;;;;5076935;28;19908;-80
2022/03/23 01:23:22;;;;;;;;;;;8.20;67.40;;;;;;5077600;28;19909;-80
2022/03/23 01:25:48;;;;;;;;;;;8.20;67.20;;;;;;5077527;28;19916;-80
2022/03/23 01:28:14;;;;;;;;;;;8.20;66.80;;;;;;5068647;28;19908;-80
2022/03/23 01:30:40;;;;;;;;;;;8.20;66.70;;;;;;5077719;28;20326;-80
2022/03/23 01:33:06;;;;;;;;;;;8.20;66.60;;;;;;5077986;28;19916;-80
2022/03/23 01:35:31;;;;;;;;;;;8.20;66.80;;;;;;5077202;28;19909;-80
2022/03/23 01:37:57;;;;;;;;;;;8.20;67.20;;;;;;5077491;28;19909;-80
2022/03/23 01:40:23;;;;;;;;;;;8.10;67.70;;;;;;5077344;28;19920;-80
2022/03/23 01:42:48;;;;;;;;;;;8.20;67.70;;;;;;5059521;28;19986;-79
2022/03/23 01:45:15;;;;;;;;;;;8.10;67.30;;;;;;5077286;28;19909;-80
2022/03/23 01:47:41;;;;;;;;;;;8.10;67.00;;;;;;5077667;28;19913;-80
2022/03/23 01:50:08;;;;;;;;;;;8.10;66.50;;;;;;5077375;28;19912;-80
2022/03/23 01:52:34;;;;;;;;;;;8.10;66.50;;;;;;5059468;28;19909;-80
2022/03/23 01:55:01;;;;;;;;;;;8.00;66.30;;;;;;5077296;28;19909;-80
2022/03/23 01:57:28;;;;;;;;;;;8.00;66.20;;;;;;5077647;28;20003;-79
2022/03/23 01:59:53;;;;;;;;;;;8.00;66.20;;;;;;5077348;28;19914;-80
2022/03/23 02:02:19;;;;;;;;;;;8.00;66.30;;;;;;5069362;28;20007;-80
2022/03/23 02:04:45;;;;;;;;;;;8.00;66.20;;;;;;5071992;28;19952;-81
2022/03/23 02:07:10;;;;;;;;;;;7.90;66.40;;;;;;5077356;28;19948;-80
2022/03/23 02:09:36;;;;;;;;;;;7.90;66.40;;;;;;5077167;28;19966;-81
2022/03/23 02:12:03;;;;;;;;;;;7.90;67.10;;;;;;5059702;28;19997;-80
2022/03/23 02:14:28;;;;;;;;;;;7.80;67.40;;;;;;5077141;28;19916;-80
2022/03/23 02:16:54;;;;;;;;;;;7.80;67.70;;;;;;5059338;28;19908;-81
2022/03/23 02:19:21;;;;;;;;;;;7.80;67.00;;;;;;5077302;28;19915;-80
2022/03/23 02:21:48;;;;;;;;;;;7.80;66.80;;;;;;5059323;28;19951;-80
2022/03/23 02:24:14;;;;;;;;;;;7.70;67.00;;;;;;5076727;28;19955;-81
2022/03/23 02:26:40;;;;;;;;;;;7.70;67.40;;;;;;5072605;28;19909;-80
2022/03/23 02:29:06;;;;;;;;;;;7.70;67.80;;;;;;5072569;28;19961;-80
2022/03/23 02:31:32;;;;;;;;;;;7.70;67.50;;;;;;5078724;28;19909;-81
2022/03/23 02:33:57;;;;;;;;;;;7.60;67.70;;;;;;5080216;28;19916;-81
2022/03/23 02:36:23;;;;;;;;;;;7.60;67.90;;;;;;5062770;28;19909;-80
2022/03/23 02:38:49;;;;;;;;;;;7.60;67.30;;;;;;5080464;28;19913;-80
2022/03/23 02:41:15;;;;;;;;;;;7.60;67.90;;;;;;5080510;28;19908;-80
2022/03/23 02:43:40;;;;;;;;;;;7.50;67.90;;;;;;5080625;28;19909;-80
2022/03/23 02:46:11;;;;;;;;;;;7.50;67.80;;;;;;5080551;28;19967;-80
2022/03/23 02:48:37;;;;;;;;;;;7.50;68.10;;;;;;5080440;28;19915;-80
2022/03/23 02:51:03;;;;;;;;;;;7.50;68.70;;;;;;5080611;28;19916;-80
2022/03/23 03:01:53;;;;;;;;;;;7.40;69.30;;;;;;5076765;28;19916;-80
2022/03/23 03:04:19;;;;;;;;;;;7.30;69.00;;;;;;5071641;28;19916;-80
2022/03/23 03:06:46;;;;;;;;;;;7.30;68.70;;;;;;5080180;28;19908;-81
2022/03/23 03:09:12;;;;;;;;;;;7.20;68.70;;;;;;5079757;28;19958;-80
2022/03/23 03:11:38;;;;;;;;;;;7.20;69.50;;;;;;5080002;28;19909;-80
2022/03/23 03:14:04;;;;;;;;;;;7.20;69.10;;;;;;5080032;28;19931;-80
2022/03/23 03:16:29;;;;;;;;;;;7.20;68.90;;;;;;5062001;28;20307;-80
2022/03/23 03:18:55;;;;;;;;;;;7.20;69.00;;;;;;5062034;28;19919;-80
2022/03/23 03:21:21;;;;;;;;;;;7.10;69.00;;;;;;5080015;28;20366;-80
2022/03/23 03:23:46;;;;;;;;;;;7.10;69.20;;;;;;5061627;28;19909;-80
2022/03/23 03:26:13;;;;;;;;;;;7.10;69.20;;;;;;5078822;28;19909;-80
2022/03/23 03:28:39;;;;;;;;;;;7.00;69.10;;;;;;5072405;28;19909;-81
2022/03/23 03:31:07;;;;;;;;;;;7.00;69.30;;;;;;5079600;28;19912;-81
2022/03/23 03:33:33;;;;;;;;;;;7.00;69.20;;;;;;5079638;28;20419;-80
2022/03/23 03:35:59;;;;;;;;;;;7.00;69.00;;;;;;5079237;28;19908;-80
2022/03/23 03:38:26;;;;;;;;;;;7.00;69.00;;;;;;5079414;28;19908;-80
2022/03/23 03:40:51;;;;;;;;;;;6.90;69.60;;;;;;5075655;28;20249;-80
2022/03/23 03:43:17;;;;;;;;;;;6.90;69.70;;;;;;5078572;28;20000;-81
2022/03/23 03:45:45;;;;;;;;;;;6.90;69.30;;;;;;5079405;28;20410;-81
2022/03/23 03:48:10;;;;;;;;;;;6.90;69.60;;;;;;5079519;28;19909;-81
2022/03/23 03:50:36;;;;;;;;;;;6.90;69.90;;;;;;5061374;28;19940;-81
2022/03/23 03:53:02;;;;;;;;;;;6.90;69.90;;;;;;5078918;28;19931;-81
2022/03/23 03:55:28;;;;;;;;;;;6.90;70.40;;;;;;5061485;28;19909;-81
2022/03/23 03:57:53;;;;;;;;;;;6.80;70.00;;;;;;5079382;28;19913;-80
2022/03/23 04:00:19;;;;;;;;;;;6.80;69.60;;;;;;5079283;28;20383;-80
2022/03/23 04:02:45;;;;;;;;;;;6.80;69.20;;;;;;5067530;28;19963;-80
2022/03/23 04:05:10;;;;;;;;;;;6.80;69.10;;;;;;5077235;28;19908;-80
2022/03/23 04:07:36;;;;;;;;;;;6.70;69.00;;;;;;5078954;28;19909;-80
2022/03/23 04:10:02;;;;;;;;;;;6.70;69.20;;;;;;5078623;28;19947;-80
2022/03/23 04:12:28;;;;;;;;;;;6.60;69.10;;;;;;5079139;28;20261;-80
2022/03/23 04:14:54;;;;;;;;;;;6.60;69.20;;;;;;5078788;28;19995;-81
2022/03/23 04:17:19;;;;;;;;;;;6.50;69.10;;;;;;5079073;28;20389;-80
2022/03/23 04:19:45;;;;;;;;;;;6.50;69.10;;;;;;5078711;28;19909;-80
2022/03/23 04:22:10;;;;;;;;;;;6.40;69.20;;;;;;5078649;28;19912;-80
2022/03/23 04:24:36;;;;;;;;;;;6.40;69.30;;;;;;5060520;28;19934;-80
2022/03/23 04:27:02;;;;;;;;;;;6.30;69.30;;;;;;5070985;28;19915;-80
2022/03/23 04:29:27;;;;;;;;;;;6.30;69.30;;;;;;5077195;28;19967;-79
2022/03/23 04:31:53;;;;;;;;;;;6.20;69.30;;;;;;5078580;28;19931;-79
2022/03/23 04:34:19;;;;;;;;;;;6.20;69.30;;;;;;5078050;28;19930;-79
2022/03/23 04:36:45;;;;;;;;;;;6.10;69.60;;;;;;5078379;28;19915;-78
2022/03/23 04:39:11;;;;;;;;;;;6.10;69.50;;;;;;5059883;28;19908;-79
2022/03/23 04:41:36;;;;;;;;;;;6.00;69.40;;;;;;5078417;28;19909;-79
2022/03/23 04:44:02;;;;;;;;;;;6.00;69.40;;;;;;5078288;28;19944;-78
2022/03/23 04:46:28;;;;;;;;;;;6.00;69.40;;;;;;5078257;28;20027;-78
2022/03/23 04:48:54;;;;;;;;;;;5.90;69.50;;;;;;5078084;28;19997;-78
2022/03/23 04:51:19;;;;;;;;;;;5.90;69.60;;;;;;5078402;28;19909;-79
2022/03/23 04:53:45;;;;;;;;;;;5.80;69.50;;;;;;5077526;28;19912;-79
2022/03/23 04:56:11;;;;;;;;;;;5.80;69.40;;;;;;5078178;28;20352;-79
2022/03/23 04:58:37;;;;;;;;;;;5.80;69.10;;;;;;5060022;28;19983;-79
2022/03/23 05:01:02;;;;;;;;;;;5.70;68.90;;;;;;5078199;28;19936;-79
2022/03/23 05:03:28;;;;;;;;;;;5.70;69.00;;;;;;5064514;28;20023;-79
2022/03/23 05:05:54;;;;;;;;;;;5.70;69.40;;;;;;5060023;28;20003;-79
2022/03/23 05:08:20;;;;;;;;;;;5.60;69.60;;;;;;5077660;28;19908;-80
2022/03/23 05:10:45;;;;;;;;;;;5.60;69.80;;;;;;5059870;28;19912;-79
2022/03/23 05:13:11;;;;;;;;;;;5.60;70.00;;;;;;5077800;28;19909;-79
2022/03/23 05:15:37;;;;;;;;;;;5.50;69.80;;;;;;5077927;28;19908;-79
2022/03/23 05:18:03;;;;;;;;;;;5.50;69.80;;;;;;5077810;28;20371;-79
2022/03/23 05:20:29;;;;;;;;;;;5.50;70.00;;;;;;5077892;28;19908;-79
2022/03/23 05:22:54;;;;;;;;;;;5.40;70.00;;;;;;5077373;28;20329;-80
2022/03/23 05:25:21;;;;;;;;;;;5.40;70.30;;;;;;5059643;28;19909;-80
2022/03/23 05:27:47;;;;;;;;;;;5.40;70.60;;;;;;5068743;28;19951;-80
2022/03/23 05:30:13;;;;;;;;;;;5.40;70.20;;;;;;5077802;28;19912;-79
2022/03/23 05:32:39;;;;;;;;;;;5.40;70.10;;;;;;5077464;28;20283;-79
2022/03/23 05:35:05;;;;;;;;;;;5.40;70.20;;;;;;5059267;28;19909;-80
2022/03/23 05:37:31;;;;;;;;;;;5.40;70.40;;;;;;5077199;28;20493;-79
2022/03/23 05:39:57;;;;;;;;;;;5.40;70.40;;;;;;5077397;28;20354;-79
2022/03/23 05:42:23;;;;;;;;;;;5.40;70.50;;;;;;5059461;28;19912;-79
2022/03/23 05:44:49;;;;;;;;;;;5.50;70.60;;;;;;5077932;28;19909;-79
2022/03/23 05:47:14;;;;;;;;;;;5.50;71.00;;;;;;5077220;28;19925;-79
2022/03/23 05:49:40;;;;;;;;;;;5.50;71.50;;;;;;5077647;28;19917;-79
2022/03/23 05:52:06;;;;;;;;;;;5.50;70.80;;;;;;5059060;28;19915;-79
2022/03/23 05:54:32;;;;;;;;;;;5.50;70.90;;;;;;5077354;28;19944;-79
2022/03/23 05:56:59;;;;;;;;;;;5.50;71.00;;;;;;5059442;28;19952;-78
2022/03/23 05:59:24;;;;;;;;;;;5.50;71.20;;;;;;5077598;28;19916;-79
2022/03/23 06:01:50;;;;;;;;;;;5.50;70.90;;;;;;5073396;28;19908;-79
2022/03/23 06:04:16;;;;;;;;;;;5.50;71.60;;;;;;5050220;28;19908;-76
2022/03/23 06:06:42;;;;;;;;;;;5.50;70.80;;;;;;5078884;28;19908;-84
2022/03/23 06:09:08;;;;;;;;;;;5.50;70.60;;;;;;5063145;28;19915;-81
2022/03/23 06:11:34;;;;;;;;;;;5.50;71.20;;;;;;5081099;28;21005;-82
2022/03/23 06:13:59;;;;;;;;;;;5.50;71.40;;;;;;5063128;28;19909;-81
2022/03/23 06:16:25;;;;;;;;;;;5.50;71.20;;;;;;5080962;28;19908;-82
2022/03/23 06:18:50;;;;;;;;;;;5.40;70.80;;;;;;5081102;28;20002;-82
2022/03/23 06:21:16;;;;;;;;;;;5.40;70.80;;;;;;5080874;28;20454;-82
2022/03/23 06:23:42;;;;;;;;;;;5.40;70.60;;;;;;5062687;28;20367;-84
2022/03/23 06:26:07;;;;;;;;;;;5.40;70.70;;;;;;5080561;28;19957;-80
2022/03/23 06:28:34;;;;;;;;;;;5.40;70.70;;;;;;5072240;28;20508;-75
2022/03/23 06:31:00;;;;;;;;;;;5.40;70.80;;;;;;5062960;28;19962;-82
2022/03/23 06:33:26;;;;;;;;;;;5.40;70.90;;;;;;5062829;28;19909;-78
2022/03/23 06:35:51;;;;;;;;;;;5.40;70.90;;;;;;5080436;28;19908;-76
2022/03/23 06:38:17;;;;;;;;;;;5.40;71.00;;;;;;5080492;28;19916;-78
2022/03/23 06:40:43;;;;;;;;;;;5.40;71.10;;;;;;5080308;28;20015;-78
2022/03/23 06:43:09;;;;;;;;;;;5.40;71.00;;;;;;5080753;28;19979;-77
2022/03/23 06:45:35;;;;;;;;;;;5.40;71.20;;;;;;5080356;28;20256;-77
2022/03/23 06:48:01;;;;;;;;;;;5.40;71.40;;;;;;5080650;28;19965;-83
2022/03/23 06:50:27;;;;;;;;;;;5.40;71.20;;;;;;5062364;28;19912;-81
2022/03/23 06:52:52;;;;;;;;;;;5.50;71.30;;;;;;5080402;28;19957;-82
2022/03/23 06:55:18;;;;;;;;;;;5.50;71.30;;;;;;5080079;28;20003;-83
2022/03/23 06:57:44;;;;;;;;;;;5.50;71.20;;;;;;5077356;28;20042;-82
2022/03/23 07:00:13;;;;;;;;;;;5.60;71.90;;;;;;5078000;28;19919;-82
2022/03/23 07:02:48;;;;;;;;;;;5.70;71.80;;;;;;5076012;28;19991;-81
2022/03/23 07:05:15;;;;;;;;;;;5.70;71.50;;;;;;5061598;28;19947;-81
2022/03/23 07:10:37;;;;;;;;;;;5.90;71.90;;;;;;5069786;28;20272;-82
2022/03/23 07:13:03;;;;;;;;;;;6.00;72.20;;;;;;5061873;28;19930;-82
2022/03/23 07:15:29;;;;;;;;;;;6.00;72.40;;;;;;5062078;28;20290;-83
2022/03/23 07:17:54;;;;;;;;;;;6.10;72.30;;;;;;5079820;28;20401;-82
2022/03/23 07:20:20;;;;;;;;;;;6.20;72.20;;;;;;5080048;28;19991;-82
2022/03/23 07:22:46;;;;;;;;;;;6.30;71.70;;;;;;5079501;28;20295;-82
2022/03/23 07:25:12;;;;;;;;;;;6.40;72.00;;;;;;5079805;28;19908;-82
2022/03/23 07:27:38;;;;;;;;;;;6.40;71.90;;;;;;5052608;28;19909;-82
2022/03/23 07:30:05;;;;;;;;;;;6.50;71.40;;;;;;5061728;28;19916;-82
2022/03/23 07:32:31;;;;;;;;;;;6.60;71.30;;;;;;5079592;28;19908;-81
2022/03/23 07:34:56;;;;;;;;;;;6.70;71.20;;;;;;5079320;28;19934;-82
2022/03/23 07:37:22;;;;;;;;;;;6.70;70.90;;;;;;5079277;28;19956;-82
2022/03/23 07:39:48;;;;;;;;;;;6.80;70.80;;;;;;5079387;28;19908;-81
2022/03/23 07:42:14;;;;;;;;;;;6.90;70.70;;;;;;5079351;28;19934;-81
2022/03/23 07:44:39;;;;;;;;;;;6.90;70.60;;;;;;5079720;28;20393;-77
2022/03/23 07:47:11;;;;;;;;;;;7.00;70.40;;;;;;5079163;28;19921;-79
2022/03/23 07:49:38;;;;;;;;;;;7.10;70.40;;;;;;5079462;28;19913;-80
2022/03/23 07:52:04;;;;;;;;;;;7.20;70.10;;;;;;5078918;28;20000;-79
2022/03/23 07:54:30;;;;;;;;;;;7.30;70.30;;;;;;5079326;28;19952;-79
2022/03/23 07:56:55;;;;;;;;;;;7.40;70.20;;;;;;5079179;28;19912;-79
2022/03/23 07:59:21;;;;;;;;;;;7.40;69.90;;;;;;5079309;28;19909;-79
2022/03/23 08:01:47;;;;;;;;;;;7.50;69.70;;;;;;5075363;28;19908;-79
2022/03/23 08:04:12;;;;;;;;;;;7.60;69.70;;;;;;5069393;28;19909;-82
2022/03/23 08:06:38;;;;;;;;;;;7.70;69.40;;;;;;5078822;28;19909;-81
2022/03/23 08:09:04;;;;;;;;;;;7.80;69.40;;;;;;5078950;28;19966;-76
2022/03/23 08:11:30;;;;;;;;;;;7.90;69.40;;;;;;5078891;28;20375;-76
2022/03/23 08:13:56;;;;;;;;;;;8.00;69.50;;;;;;5078682;28;19976;-81
2022/03/23 08:16:22;;;;;;;;;;;8.10;69.30;;;;;;5059694;28;19915;-81
2022/03/23 08:18:47;;;;;;;;;;;8.20;69.00;;;;;;5078177;28;19908;-81
2022/03/23 08:21:13;;;;;;;;;;;8.40;69.20;;;;;;5078720;28;19912;-80
2022/03/23 08:23:40;;;;;;;;;;;8.80;69.80;;;;;;5078457;28;19958;-80
2022/03/23 08:26:09;;;;;;;;;;;9.30;69.90;;;;;;5060608;28;19908;-80
2022/03/23 08:28:35;;;;;;;;;;;10.00;68.50;;;;;;5051793;28;20003;-80
2022/03/23 08:31:01;;;;;;;;;;;10.90;67.70;;;;;;5078398;28;19912;-80
2022/03/23 08:33:29;;;;;;;;;;;11.60;67.50;;;;;;5078514;28;20283;-80
2022/03/23 08:35:55;;;;;;;;;;;12.40;66.30;;;;;;5077818;28;19913;-80
2022/03/23 08:38:20;;;;;;;;;;;13.10;65.90;;;;;;5078215;28;20390;-80
2022/03/23 08:40:46;;;;;;;;;;;13.80;64.40;;;;;;5078014;28;19916;-79
2022/03/23 08:43:12;;;;;;;;;;;14.40;62.20;;;;;;5078523;28;20442;-78
2022/03/23 08:45:37;;;;;;;;;;;15.00;61.80;;;;;;5078018;28;19965;-78
2022/03/23 08:48:03;;;;;;;;;;;15.60;61.80;;;;;;5078286;28;19916;-78
2022/03/23 08:50:29;;;;;;;;;;;16.10;58.40;;;;;;5078009;28;19919;-78
2022/03/23 08:52:55;;;;;;;;;;;16.60;58.20;;;;;;5077960;28;19913;-78
2022/03/23 08:55:23;;;;;;;;;;;17.00;56.90;;;;;;5077945;28;19983;-78
2022/03/23 08:57:48;;;;;;;;;;;17.40;57.10;;;;;;5078107;28;20390;-78
2022/03/23 09:00:15;;;;;;;;;;;17.90;56.60;;;;;;5077950;28;19908;-78
2022/03/23 09:02:40;;;;;;;;;;;18.30;54.50;;;;;;5067059;28;19959;-78
2022/03/23 09:05:10;;;;;;;;;;;18.60;53.20;;;;;;5075588;28;19912;-78
2022/03/23 09:07:36;;;;;;;;;;;18.80;51.70;;;;;;5077857;28;19913;-79
2022/03/23 09:10:02;;;;;;;;;;;19.10;52.10;;;;;;5077674;28;19920;-79
2022/03/23 09:12:28;;;;;;;;;;;19.30;53.50;;;;;;5077938;28;19913;-79
2022/03/23 09:14:53;;;;;;;;;;;19.70;50.30;;;;;;5077856;28;19935;-79
2022/03/23 09:17:19;;;;;;;;;;;19.90;50.80;;;;;;5077931;28;19930;-79
2022/03/23 09:19:44;;;;;;;;;;;20.20;50.20;;;;;;5077725;28;20011;-79
2022/03/23 09:22:10;;;;;;;;;;;20.40;48.60;;;;;;5059536;28;20034;-79
2022/03/23 09:24:36;;;;;;;;;;;20.70;47.80;;;;;;5059562;28;20283;-79
2022/03/23 09:27:01;;;;;;;;;;;20.80;47.30;;;;;;5070090;28;20296;-80
2022/03/23 09:29:27;;;;;;;;;;;20.90;48.10;;;;;;5076154;28;19916;-80
2022/03/23 09:31:53;;;;;;;;;;;21.10;47.80;;;;;;5077687;28;19909;-80
2022/03/23 09:34:18;;;;;;;;;;;21.40;48.60;;;;;;5077145;28;19932;-80
2022/03/23 09:39:28;;;;;;;;;;;21.90;44.50;;;;;;5065800;28;20001;-80
2022/03/23 09:41:56;;;;;;;;;;;22.00;45.40;;;;;;5079823;28;19908;-79
2022/03/23 09:44:24;;;;;;;;;;;22.30;46.90;;;;;;5081884;28;19967;-80
2022/03/23 09:46:49;;;;;;;;;;;22.60;45.50;;;;;;5063639;28;19920;-78
2022/03/23 09:49:15;;;;;;;;;;;22.90;44.20;;;;;;5081816;28;19995;-79
2022/03/23 09:51:42;;;;;;;;;;;23.10;45.10;;;;;;5081265;28;19908;-78
2022/03/23 09:54:07;;;;;;;;;;;23.40;43.30;;;;;;5081415;28;19908;-79
2022/03/23 09:56:34;;;;;;;;;;;23.70;45.40;;;;;;5081570;28;19912;-79
2022/03/23 09:59:01;;;;;;;;;;;23.90;45.30;;;;;;5081604;28;19995;-79
2022/03/23 10:01:30;;;;;;;;;;;24.20;43.80;;;;;;5080522;28;20358;-78
2022/03/23 10:04:07;;;;;;;;;;;24.50;44.80;;;;;;5069269;28;20382;-78
2022/03/23 10:06:51;;;;;;;;;;;24.90;43.70;;;;;;5081208;28;19947;-78
2022/03/23 10:09:19;;;;;;;;;;;25.20;43.50;;;;;;5081185;28;19915;-79
2022/03/23 10:11:51;;;;;;;;;;;25.40;42.30;;;;;;5063120;28;19957;-79
2022/03/23 10:14:35;;;;;;;;;;;25.50;43.40;;;;;;5081100;28;19915;-78
2022/03/23 10:17:04;;;;;;;;;;;25.70;41.80;;;;;;5063444;28;19908;-80
2022/03/23 10:19:29;;;;;;;;;;;25.80;41.10;;;;;;5081015;28;19909;-79
2022/03/23 10:22:05;;;;;;;;;;;26.00;41.40;;;;;;5063047;28;20001;-79
2022/03/23 10:24:33;;;;;;;;;;;26.10;39.60;;;;;;5063008;28;19915;-79
2022/03/23 10:26:59;;;;;;;;;;;26.30;41.70;;;;;;5073654;28;20391;-78
2022/03/23 10:29:25;;;;;;;;;;;26.60;40.40;;;;;;5078823;28;19912;-78
2022/03/23 10:32:05;;;;;;;;;;;26.70;39.10;;;;;;5080819;28;19908;-78
2022/03/23 10:34:37;;;;;;;;;;;26.70;38.90;;;;;;5068404;28;20375;-78
2022/03/23 10:37:03;;;;;;;;;;;26.80;40.40;;;;;;5080408;28;19947;-79
2022/03/23 10:39:30;;;;;;;;;;;26.90;38.40;;;;;;5062576;28;19909;-79
2022/03/23 10:41:59;;;;;;;;;;;26.80;37.30;;;;;;5080631;28;19913;-79
2022/03/23 10:44:26;;;;;;;;;;;26.60;37.30;;;;;;5080638;28;19909;-79
2022/03/23 10:46:51;;;;;;;;;;;26.60;38.00;;;;;;5062575;28;19921;-78
2022/03/23 10:49:17;;;;;;;;;;;26.80;39.50;;;;;;5080585;28;19998;-77
2022/03/23 10:51:43;;;;;;;;;;;26.90;36.60;;;;;;5079750;28;19998;-78
2022/03/23 10:54:16;;;;;;;;;;;26.90;38.80;;;;;;5080395;28;20357;-78
2022/03/23 10:56:42;;;;;;;;;;;26.90;37.70;;;;;;5080402;28;20252;-77
2022/03/23 10:59:25;;;;;;;;;;;26.90;37.00;;;;;;5080706;28;19908;-79
2022/03/23 11:01:55;;;;;;;;;;;26.90;37.30;;;;;;5075952;28;19908;-77
2022/03/23 11:04:21;;;;;;;;;;;26.90;37.30;;;;;;5071635;28;19915;-78
2022/03/23 11:06:46;;;;;;;;;;;27.10;37.60;;;;;;5061881;28;20381;-80
2022/03/23 11:17:49;;;;;;;;;;;27.70;37.80;;;;;;5080223;28;19923;-77
2022/03/23 11:20:15;;;;;;;;;;;27.90;39.20;;;;;;5080492;28;19999;-79
2022/03/23 11:22:41;;;;;;;;;;;28.00;37.00;;;;;;5079625;28;19990;-79
2022/03/23 11:25:07;;;;;;;;;;;28.10;37.00;;;;;;5079940;28;19909;-79
2022/03/23 11:27:35;;;;;;;;;;;28.10;36.20;;;;;;5070858;28;20436;-78
2022/03/23 11:30:01;;;;;;;;;;;28.00;36.70;;;;;;5061842;28;19912;-80
2022/03/23 11:32:28;;;;;;;;;;;28.10;36.60;;;;;;5079927;28;20370;-79
2022/03/23 11:34:55;;;;;;;;;;;28.20;36.20;;;;;;5079615;28;19913;-79
2022/03/23 11:37:23;;;;;;;;;;;28.20;36.80;;;;;;5079321;28;19938;-78
2022/03/23 11:39:50;;;;;;;;;;;28.20;37.20;;;;;;5079461;28;19916;-77
2022/03/23 11:42:17;;;;;;;;;;;28.30;37.60;;;;;;5079480;28;19915;-77
2022/03/23 11:44:45;;;;;;;;;;;28.40;38.50;;;;;;5079703;28;19977;-77
2022/03/23 11:47:21;;;;;;;;;;;28.60;38.30;;;;;;5079210;28;19921;-78
2022/03/23 11:49:50;;;;;;;;;;;28.60;36.00;;;;;;5079359;28;19927;-77
2022/03/23 11:52:36;;;;;;;;;;;28.60;36.10;;;;;;5066486;28;19908;-78
2022/03/23 11:57:55;;;;;;;;;;;28.40;34.20;;;;;;5079536;28;19915;-78
2022/03/23 12:00:22;;;;;;;;;;;28.20;33.10;;;;;;5066871;28;20275;-79
2022/03/23 12:02:48;;;;;;;;;;;27.90;35.60;;;;;;5066535;28;20362;-77
2022/03/23 12:05:23;;;;;;;;;;;27.70;34.70;;;;;;5058764;28;20012;-78
2022/03/23 12:07:49;;;;;;;;;;;27.60;34.70;;;;;;5078656;28;19954;-78
2022/03/23 12:10:22;;;;;;;;;;;27.70;35.90;;;;;;5078982;28;19912;-78
2022/03/23 12:12:48;;;;;;;;;;;27.70;35.40;;;;;;5078966;28;19908;-78
2022/03/23 12:15:19;;;;;;;;;;;27.60;33.80;;;;;;5079221;28;19919;-79
2022/03/23 12:17:54;;;;;;;;;;;27.40;35.00;;;;;;5078694;28;19909;-79
2022/03/23 12:20:33;;;;;;;;;;;27.20;37.60;;;;;;5078902;28;19909;-78
2022/03/23 12:23:08;;;;;;;;;;;27.10;34.40;;;;;;5078294;28;19916;-79
2022/03/23 12:25:33;;;;;;;;;;;27.10;36.60;;;;;;5078511;28;19908;-78
2022/03/23 12:28:02;;;;;;;;;;;27.20;36.80;;;;;;5069844;28;19962;-76
2022/03/23 12:30:28;;;;;;;;;;;27.20;34.60;;;;;;5060443;28;19919;-77
2022/03/23 12:32:57;;;;;;;;;;;27.30;36.70;;;;;;5060836;28;19913;-77
2022/03/23 12:35:32;;;;;;;;;;;27.30;34.40;;;;;;5078082;28;20311;-78
2022/03/23 12:37:59;;;;;;;;;;;27.10;34.20;;;;;;5078241;28;19916;-76
2022/03/23 12:40:36;;;;;;;;;;;26.90;34.40;;;;;;5077280;28;19923;-80
2022/03/23 12:43:03;;;;;;;;;;;26.70;34.10;;;;;;5078598;28;19964;-78
2022/03/23 12:45:32;;;;;;;;;;;26.50;35.00;;;;;;5078002;28;19944;-78
2022/03/23 12:47:59;;;;;;;;;;;26.40;36.10;;;;;;5078427;28;19921;-79
2022/03/23 12:58:47;;;;;;;;;;;25.70;36.40;;;;;;5066558;28;20383;-78
2022/03/23 13:01:14;;;;;;;;;;;25.70;36.60;;;;;;5077988;28;19909;-77
2022/03/23 13:03:42;;;;;;;;;;;25.60;34.60;;;;;;5064429;28;19916;-78
2022/03/23 13:06:12;;;;;;;;;;;25.40;34.60;;;;;;5060311;28;19915;-78
2022/03/23 13:08:46;;;;;;;;;;;25.10;35.90;;;;;;5077604;28;19909;-78
2022/03/23 13:11:12;;;;;;;;;;;25.00;36.10;;;;;;5077848;28;19935;-78
2022/03/23 13:13:38;;;;;;;;;;;24.80;34.90;;;;;;5078073;28;19908;-78
2022/03/23 13:16:10;;;;;;;;;;;24.60;35.00;;;;;;5077706;28;19919;-78
2022/03/23 13:18:39;;;;;;;;;;;24.30;35.60;;;;;;5078168;28;19926;-78
2022/03/23 13:21:10;;;;;;;;;;;23.90;35.60;;;;;;5077785;28;20397;-78
2022/03/23 13:23:39;;;;;;;;;;;23.60;36.80;;;;;;5077544;28;19908;-79
2022/03/23 13:26:06;;;;;;;;;;;23.20;37.00;;;;;;5077536;28;19909;-78
2022/03/23 13:28:35;;;;;;;;;;;22.90;37.00;;;;;;5068713;28;19908;-79
2022/03/23 13:31:02;;;;;;;;;;;22.60;37.50;;;;;;5077658;28;19912;-78
2022/03/23 13:33:37;;;;;;;;;;;22.30;37.50;;;;;;5077725;28;19909;-80
2022/03/23 13:36:04;;;;;;;;;;;22.20;37.20;;;;;;5077276;28;19908;-79
2022/03/23 13:38:34;;;;;;;;;;;22.00;36.70;;;;;;5077475;28;19931;-79
2022/03/23 13:43:44;;;;;;;;;;;21.40;37.00;;;;;;5077561;28;20294;-79
2022/03/23 13:46:10;;;;;;;;;;;21.10;37.80;;;;;;5077535;28;19920;-79
2022/03/23 13:48:36;;;;;;;;;;;20.90;37.30;;;;;;5077517;28;19955;-76
2022/03/23 13:51:03;;;;;;;;;;;20.70;38.00;;;;;;5059477;28;20007;-77
2022/03/23 13:53:29;;;;;;;;;;;20.60;38.50;;;;;;5077221;28;19970;-76
2022/03/23 13:55:56;;;;;;;;;;;20.50;38.90;;;;;;5077608;28;20329;-79
2022/03/23 13:58:22;;;;;;;;;;;20.40;37.90;;;;;;5059648;28;19909;-79
2022/03/23 14:00:51;;;;;;;;;;;20.30;37.90;;;;;;5077703;28;20004;-79
2022/03/23 14:03:19;;;;;;;;;;;20.10;38.30;;;;;;5046201;28;19931;-78
2022/03/23 14:06:01;;;;;;;;;;;20.00;39.00;;;;;;5077546;28;19909;-78
2022/03/23 14:08:27;;;;;;;;;;;19.90;39.10;;;;;;5077036;28;19909;-79
2022/03/23 14:10:53;;;;;;;;;;;19.80;39.30;;;;;;5077361;28;19912;-79
2022/03/23 14:13:19;;;;;;;;;;;19.80;39.70;;;;;;5059273;28;19908;-79
2022/03/23 14:15:49;;;;;;;;;;;19.70;38.10;;;;;;5077396;28;19908;-78
2022/03/23 14:18:15;;;;;;;;;;;19.60;38.00;;;;;;5059391;28;19908;-79
2022/03/23 14:20:52;;;;;;;;;;;19.40;39.30;;;;;;5059446;28;20486;-77
2022/03/23 14:23:20;;;;;;;;;;;19.30;39.20;;;;;;5065424;28;19908;-79
2022/03/23 14:25:46;;;;;;;;;;;19.30;38.80;;;;;;5076921;28;19916;-79
2022/03/23 14:28:15;;;;;;;;;;;19.30;39.30;;;;;;5071119;28;19908;-77
2022/03/23 14:30:44;;;;;;;;;;;19.20;39.90;;;;;;5080801;28;19920;-78
2022/03/23 14:33:10;;;;;;;;;;;19.10;39.20;;;;;;5081012;28;19908;-77
2022/03/23 14:35:40;;;;;;;;;;;19.00;40.10;;;;;;5080569;28;19916;-78
2022/03/23 14:38:08;;;;;;;;;;;19.00;40.10;;;;;;5080544;28;19909;-77
2022/03/23 14:40:37;;;;;;;;;;;19.00;40.50;;;;;;5080477;28;20437;-77
2022/03/23 14:43:05;;;;;;;;;;;18.90;40.40;;;;;;5080888;28;19908;-78
2022/03/23 14:45:31;;;;;;;;;;;18.90;39.90;;;;;;5080314;28;19909;-79
2022/03/23 14:47:58;;;;;;;;;;;18.80;39.30;;;;;;5080628;28;19917;-77
2022/03/23 14:50:24;;;;;;;;;;;18.70;39.20;;;;;;5080387;28;19912;-78
2022/03/23 14:52:50;;;;;;;;;;;18.70;40.30;;;;;;5080297;28;19912;-78
2022/03/23 14:55:16;;;;;;;;;;;18.70;41.00;;;;;;5062487;28;19915;-78
2022/03/23 14:57:42;;;;;;;;;;;18.70;40.60;;;;;;5080570;28;20393;-79